createdAt,value
2019-02-15T00:00:12.790Z,102138.05
2019-02-15T00:02:39.655Z,102139.23
2019-02-15T00:05:06.583Z,102130.16
2019-02-15T00:07:33.431Z,102126.76
2019-02-15T00:10:00.314Z,102123.30
2019-02-15T00:12:27.106Z,102124.08
2019-02-15T00:14:53.950Z,102121.73
2019-02-15T00:17:42.302Z,102115.52
2019-02-15T00:20:13.052Z,102122.02
2019-02-15T00:22:39.919Z,102115.81
2019-02-15T00:25:06.756Z,102116.15
2019-02-15T00:27:33.602Z,102106.81
2019-02-15T00:30:00.435Z,102117.25
2019-02-15T00:32:27.303Z,102117.47
2019-02-15T00:34:54.135Z,102114.63
2019-02-15T00:37:20.986Z,102115.13
2019-02-15T00:39:47.826Z,102108.48
2019-02-15T00:42:14.678Z,102109.03
2019-02-15T00:44:41.515Z,102117.04
2019-02-15T00:47:29.867Z,102106.31
2019-02-15T00:50:05.690Z,102113.19
2019-02-15T00:52:42.289Z,102107.44
2019-02-15T00:55:15.792Z,102095.03
2019-02-15T00:58:04.091Z,102092.00
2019-02-15T01:00:51.531Z,102095.02
2019-02-15T01:03:29.898Z,102098.59
2019-02-15T01:06:02.430Z,102102.02
2019-02-15T01:08:39.263Z,102092.84
2019-02-15T01:11:11.393Z,102092.97
2019-02-15T01:13:38.250Z,102094.89
2019-02-15T01:16:05.077Z,102087.98
2019-02-15T01:18:31.930Z,102085.84
2019-02-15T01:20:58.762Z,102089.36
2019-02-15T01:23:25.782Z,102086.73
2019-02-15T01:26:02.635Z,102077.59
2019-02-15T01:28:37.433Z,102079.23
2019-02-15T01:31:29.874Z,102072.91
2019-02-15T01:34:06.155Z,102063.47
2019-02-15T01:36:41.319Z,102072.80
2019-02-15T01:39:22.558Z,102072.73
2019-02-15T01:42:00.569Z,102068.55
2019-02-15T01:44:33.125Z,102066.48
2019-02-15T01:47:09.118Z,102064.08
2019-02-15T01:49:35.950Z,102057.37
2019-02-15T01:52:02.806Z,102054.20
2019-02-15T01:54:29.639Z,102054.75
2019-02-15T01:56:56.495Z,102054.35
2019-02-15T01:59:23.326Z,102053.07
2019-02-15T02:01:50.182Z,102049.11
2019-02-15T02:04:17.022Z,102052.36
2019-02-15T02:06:43.855Z,102053.96
2019-02-15T02:09:10.702Z,102054.25
2019-02-15T02:11:37.538Z,102050.50
2019-02-15T02:14:04.391Z,102043.76
2019-02-15T02:16:31.233Z,102049.45
2019-02-15T02:18:58.092Z,102050.87
2019-02-15T02:21:24.934Z,102049.98
2019-02-15T02:23:51.787Z,102041.69
2019-02-15T02:26:18.626Z,102034.08
2019-02-15T02:28:45.505Z,102036.47
2019-02-15T02:31:12.339Z,102027.77
2019-02-15T02:33:39.216Z,102038.53
2019-02-15T02:36:06.067Z,102034.20
2019-02-15T02:38:32.934Z,102026.55
2019-02-15T02:40:59.762Z,102038.61
2019-02-15T02:43:26.619Z,102029.84
2019-02-15T02:45:53.455Z,102028.16
2019-02-15T02:48:20.306Z,102033.19
2019-02-15T02:50:47.143Z,102029.00
2019-02-15T02:53:13.994Z,102030.84
2019-02-15T02:55:40.833Z,102032.59
2019-02-15T02:58:07.682Z,102037.94
2019-02-15T03:00:34.521Z,102032.91
2019-02-15T03:03:01.374Z,102032.86
2019-02-15T03:05:28.264Z,102034.53
2019-02-15T03:07:55.087Z,102034.31
2019-02-15T03:10:21.938Z,102027.48
2019-02-15T03:12:48.790Z,102033.19
2019-02-15T03:15:15.636Z,102032.45
2019-02-15T03:17:42.476Z,102032.09
2019-02-15T03:20:09.314Z,102030.27
2019-02-15T03:22:36.155Z,102030.05
2019-02-15T03:25:03.040Z,102027.85
2019-02-15T03:27:29.872Z,102026.69
2019-02-15T03:29:56.711Z,102024.92
2019-02-15T03:32:23.547Z,102023.77
2019-02-15T03:34:50.416Z,102022.92
2019-02-15T03:37:36.823Z,102018.18
2019-02-15T03:40:13.562Z,102017.23
2019-02-15T03:42:40.403Z,102015.27
2019-02-15T03:45:08.132Z,102009.28
2019-02-15T03:47:34.289Z,102019.28
2019-02-15T03:50:01.173Z,102016.45
2019-02-15T03:52:28.018Z,102014.14
2019-02-15T03:54:54.876Z,102015.43
2019-02-15T03:57:21.717Z,102016.45
2019-02-15T03:59:48.886Z,102018.61
2019-02-15T04:02:15.718Z,102022.13
2019-02-15T04:04:42.557Z,102017.38
2019-02-15T04:07:09.395Z,102022.39
2019-02-15T04:09:36.264Z,102021.69
2019-02-15T04:12:03.106Z,102023.97
2019-02-15T04:14:32.814Z,102027.11
2019-02-15T04:16:56.807Z,102025.20
2019-02-15T04:19:23.658Z,102025.78
2019-02-15T04:21:50.503Z,102023.31
2019-02-15T04:24:17.347Z,102029.30
2019-02-15T04:26:44.194Z,102029.89
2019-02-15T04:29:11.042Z,102034.85
2019-02-15T04:31:37.959Z,102035.42
2019-02-15T04:34:04.807Z,102039.64
2019-02-15T04:36:31.658Z,102029.84
2019-02-15T04:38:58.502Z,102030.44
2019-02-15T04:41:25.334Z,102034.69
2019-02-15T04:43:52.190Z,102031.30
2019-02-15T04:46:19.030Z,102024.25
2019-02-15T04:48:45.883Z,102031.59
2019-02-15T04:51:12.746Z,102036.59
2019-02-15T04:53:39.583Z,102037.03
2019-02-15T04:56:06.417Z,102038.01
2019-02-15T04:58:33.258Z,102038.27
2019-02-15T05:01:00.104Z,102044.23
2019-02-15T05:03:26.930Z,102043.22
2019-02-15T05:05:53.867Z,102045.80
2019-02-15T05:08:20.703Z,102046.30
2019-02-15T05:10:47.851Z,102044.14
2019-02-15T05:13:14.606Z,102043.98
2019-02-15T05:15:41.479Z,102046.16
2019-02-15T05:18:08.302Z,102042.40
2019-02-15T05:20:35.158Z,102055.28
2019-02-15T05:23:02.044Z,102052.72
2019-02-15T05:25:29.859Z,102055.66
2019-02-15T05:27:56.693Z,102047.53
2019-02-15T05:30:23.721Z,102053.04
2019-02-15T05:32:50.566Z,102053.92
2019-02-15T05:35:17.508Z,102050.45
2019-02-15T05:37:44.355Z,102046.16
2019-02-15T05:40:11.199Z,102045.72
2019-02-15T05:42:38.047Z,102051.38
2019-02-15T05:45:05.211Z,102054.32
2019-02-15T05:47:32.033Z,102053.52
2019-02-15T05:49:58.906Z,102054.44
2019-02-15T05:52:25.731Z,102047.91
2019-02-15T05:54:52.695Z,102050.78
2019-02-15T05:57:19.522Z,102053.16
2019-02-15T05:59:46.455Z,102048.68
2019-02-15T06:02:13.248Z,102051.91
2019-02-15T06:04:40.084Z,102053.41
2019-02-15T06:07:06.933Z,102058.94
2019-02-15T06:09:33.760Z,102062.25
2019-02-15T06:12:00.586Z,102055.95
2019-02-15T06:14:27.454Z,102061.94
2019-02-15T06:16:54.323Z,102062.38
2019-02-15T06:19:21.169Z,102062.43
2019-02-15T06:21:48.132Z,102063.93
2019-02-15T06:24:14.870Z,102064.95
2019-02-15T06:26:41.805Z,102064.72
2019-02-15T06:29:08.672Z,102063.73
2019-02-15T06:31:35.520Z,102074.63
2019-02-15T06:34:02.347Z,102067.98
2019-02-15T06:36:32.358Z,102070.52
2019-02-15T06:38:59.212Z,102077.02
2019-02-15T06:41:26.083Z,102082.30
2019-02-15T06:43:52.910Z,102085.44
2019-02-15T06:46:19.758Z,102082.89
2019-02-15T06:48:46.590Z,102087.22
2019-02-15T06:51:13.438Z,102082.23
2019-02-15T06:53:40.299Z,102086.95
2019-02-15T06:56:07.134Z,102086.23
2019-02-15T06:58:33.975Z,102090.67
2019-02-15T07:01:06.606Z,102095.47
2019-02-15T07:03:40.815Z,102093.75
2019-02-15T07:06:07.662Z,102103.06
2019-02-15T07:08:34.498Z,102101.41
2019-02-15T07:11:01.350Z,102091.36
2019-02-15T07:13:28.199Z,102100.16
2019-02-15T07:15:55.050Z,102102.39
2019-02-15T07:18:21.882Z,102106.91
2019-02-15T07:20:48.738Z,102107.92
2019-02-15T07:23:15.574Z,102107.43
2019-02-15T07:25:42.433Z,102108.89
2019-02-15T07:28:09.287Z,102107.94
2019-02-15T07:30:36.129Z,102103.86
2019-02-15T07:33:02.959Z,102103.17
2019-02-15T07:35:29.818Z,102111.55
2019-02-15T07:37:56.653Z,102104.27
2019-02-15T07:40:23.506Z,102110.13
2019-02-15T07:42:50.595Z,102106.61
2019-02-15T07:45:17.998Z,102109.80
2019-02-15T07:47:44.526Z,102109.06
2019-02-15T07:50:12.082Z,102102.84
2019-02-15T07:52:38.938Z,102099.97
2019-02-15T07:55:05.817Z,102101.41
2019-02-15T07:57:33.963Z,102102.64
2019-02-15T08:00:00.651Z,102098.84
2019-02-15T08:02:26.407Z,102101.23
2019-02-15T08:04:53.250Z,102097.26
2019-02-15T08:07:20.107Z,102099.06
2019-02-15T08:09:46.957Z,102098.09
2019-02-15T08:12:13.819Z,102097.53
2019-02-15T08:14:40.658Z,102093.02
2019-02-15T08:17:07.514Z,102089.03
2019-02-15T08:19:34.358Z,102088.03
2019-02-15T08:22:01.210Z,102084.86
2019-02-15T08:24:28.064Z,102096.53
2019-02-15T08:26:54.943Z,102091.78
2019-02-15T08:29:21.789Z,102085.56
2019-02-15T08:31:48.657Z,102087.44
2019-02-15T08:34:15.498Z,102081.06
2019-02-15T08:36:42.343Z,102077.03
2019-02-15T08:39:09.181Z,102079.23
2019-02-15T08:41:36.035Z,102079.54
2019-02-15T08:44:02.861Z,102072.03
2019-02-15T08:46:29.753Z,102074.59
2019-02-15T08:48:56.590Z,102065.64
2019-02-15T08:51:23.442Z,102065.25
2019-02-15T08:53:50.484Z,102068.30
2019-02-15T08:56:17.202Z,102063.12
2019-02-15T08:58:44.046Z,102060.23
2019-02-15T09:01:11.003Z,102061.45
2019-02-15T09:03:37.851Z,102057.86
2019-02-15T09:06:04.703Z,102061.63
2019-02-15T09:08:31.561Z,102060.57
2019-02-15T09:10:58.399Z,102057.61
2019-02-15T09:13:25.239Z,102068.62
2019-02-15T09:15:52.078Z,102066.70
2019-02-15T09:18:18.934Z,102056.17
2019-02-15T09:20:45.781Z,102058.58
2019-02-15T09:23:12.641Z,102053.63
2019-02-15T09:25:39.482Z,102059.67
2019-02-15T09:28:21.149Z,102056.28
2019-02-15T09:30:50.806Z,102052.02
2019-02-15T09:33:17.675Z,102050.44
2019-02-15T09:35:44.507Z,102045.67
2019-02-15T09:38:11.369Z,102042.98
2019-02-15T09:40:38.206Z,102042.61
2019-02-15T09:43:05.097Z,102041.06
2019-02-15T09:45:33.024Z,102036.36
2019-02-15T09:47:58.806Z,102037.33
2019-02-15T09:50:25.662Z,102038.06
2019-02-15T09:52:52.519Z,102033.42
2019-02-15T09:55:19.357Z,102040.52
2019-02-15T09:57:46.257Z,102033.55
2019-02-15T10:00:13.111Z,102029.77
2019-02-15T10:02:39.971Z,102030.09
2019-02-15T10:05:06.827Z,102037.59
2019-02-15T10:07:33.783Z,102027.27
2019-02-15T10:10:00.642Z,102029.91
2019-02-15T10:12:27.533Z,102030.20
2019-02-15T10:14:54.343Z,102032.12
2019-02-15T10:17:21.171Z,102030.34
2019-02-15T10:19:48.042Z,102025.42
2019-02-15T10:22:14.855Z,102022.09
2019-02-15T10:24:41.686Z,102024.07
2019-02-15T10:27:08.568Z,102026.01
2019-02-15T10:29:35.401Z,102027.09
2019-02-15T10:32:02.254Z,102027.45
2019-02-15T10:34:29.098Z,102020.45
2019-02-15T10:36:55.961Z,102016.22
2019-02-15T10:39:22.910Z,102018.81
2019-02-15T10:41:49.785Z,102018.87
2019-02-15T10:44:16.621Z,102013.17
2019-02-15T10:46:43.474Z,102011.27
2019-02-15T10:49:10.307Z,102005.63
2019-02-15T10:51:37.161Z,102003.85
2019-02-15T10:54:04.000Z,102002.20
2019-02-15T10:56:30.842Z,101994.88
2019-02-15T10:58:57.683Z,101999.45
2019-02-15T11:01:24.541Z,101993.22
2019-02-15T11:03:51.367Z,101997.52
2019-02-15T11:06:18.234Z,101984.53
2019-02-15T11:08:45.066Z,101983.51
2019-02-15T11:11:11.914Z,101976.16
2019-02-15T11:13:38.737Z,101972.69
2019-02-15T11:16:05.616Z,101961.58
2019-02-15T11:18:32.454Z,101969.28
2019-02-15T11:20:59.306Z,101965.39
2019-02-15T11:23:26.138Z,101955.74
2019-02-15T11:25:53.027Z,101955.83
2019-02-15T11:28:19.830Z,101953.61
2019-02-15T11:30:46.691Z,101956.89
2019-02-15T11:33:13.510Z,101943.27
2019-02-15T11:35:40.354Z,101945.03
2019-02-15T11:38:07.183Z,101936.58
2019-02-15T11:40:34.022Z,101936.64
2019-02-15T11:43:00.943Z,101931.60
2019-02-15T11:45:28.458Z,101929.84
2019-02-15T11:47:55.296Z,101921.25
2019-02-15T11:50:22.116Z,101921.78
2019-02-15T11:52:48.958Z,101920.83
2019-02-15T11:55:15.808Z,101906.84
2019-02-15T11:57:42.674Z,101901.91
2019-02-15T12:00:14.224Z,101904.45
2019-02-15T12:02:37.662Z,101894.06
2019-02-15T12:05:05.198Z,101890.17
2019-02-15T12:07:32.050Z,101886.16
2019-02-15T12:09:58.958Z,101885.11
2019-02-15T12:12:25.811Z,101882.75
2019-02-15T12:14:52.682Z,101880.58
2019-02-15T12:17:20.477Z,101880.27
2019-02-15T12:19:47.315Z,101877.94
2019-02-15T12:22:14.202Z,101864.39
2019-02-15T12:24:41.131Z,101864.88
2019-02-15T12:27:08.005Z,101855.47
2019-02-15T12:29:34.922Z,101852.50
2019-02-15T12:32:01.874Z,101849.77
2019-02-15T12:34:28.702Z,101845.80
2019-02-15T12:36:55.550Z,101838.30
2019-02-15T12:39:22.371Z,101842.67
2019-02-15T12:41:49.210Z,101836.81
2019-02-15T12:44:16.088Z,101834.80
2019-02-15T12:46:42.926Z,101834.09
2019-02-15T12:49:09.750Z,101822.40
2019-02-15T12:51:36.585Z,101817.69
2019-02-15T12:54:03.454Z,101815.95
2019-02-15T12:56:30.399Z,101806.59
2019-02-15T12:58:57.262Z,101809.91
2019-02-15T13:01:24.094Z,101802.59
2019-02-15T13:03:50.922Z,101805.52
2019-02-15T13:06:17.799Z,101800.47
2019-02-15T13:08:44.742Z,101794.31
2019-02-15T13:11:11.602Z,101783.97
2019-02-15T13:13:38.487Z,101788.98
2019-02-15T13:16:05.337Z,101781.02
2019-02-15T13:18:32.202Z,101780.79
2019-02-15T13:20:59.042Z,101772.97
2019-02-15T13:23:25.902Z,101770.24
2019-02-15T13:25:52.760Z,101763.95
2019-02-15T13:28:19.579Z,101765.84
2019-02-15T13:30:46.483Z,101762.29
2019-02-15T13:33:13.373Z,101756.77
2019-02-15T13:35:40.186Z,101748.98
2019-02-15T13:38:07.039Z,101741.84
2019-02-15T13:40:33.867Z,101753.09
2019-02-15T13:43:00.702Z,101742.27
2019-02-15T13:45:29.538Z,101739.86
2019-02-15T13:47:55.694Z,101738.42
2019-02-15T13:50:22.522Z,101730.71
2019-02-15T13:52:49.366Z,101719.19
2019-02-15T13:55:16.186Z,101725.70
2019-02-15T13:57:43.223Z,101723.93
2019-02-15T14:00:10.601Z,101715.56
2019-02-15T14:02:37.437Z,101712.00
2019-02-15T14:05:04.383Z,101715.13
2019-02-15T14:07:31.238Z,101713.75
2019-02-15T14:09:58.086Z,101712.84
2019-02-15T14:12:24.911Z,101704.02
2019-02-15T14:14:51.771Z,101705.09
2019-02-15T14:17:18.623Z,101713.56
2019-02-15T14:19:45.461Z,101706.14
2019-02-15T14:22:12.291Z,101710.23
2019-02-15T14:24:39.142Z,101722.33
2019-02-15T14:27:06.842Z,101715.73
2019-02-15T14:29:33.718Z,101714.73
2019-02-15T14:32:00.631Z,101724.31
2019-02-15T14:34:27.495Z,101714.95
2019-02-15T14:36:54.324Z,101707.55
2019-02-15T14:39:21.172Z,101704.11
2019-02-15T14:41:48.127Z,101701.14
2019-02-15T14:44:14.842Z,101697.80
2019-02-15T14:46:41.675Z,101695.56
2019-02-15T14:49:08.511Z,101695.75
2019-02-15T14:51:35.350Z,101684.47
2019-02-15T14:54:02.206Z,101690.39
2019-02-15T14:56:29.029Z,101684.34
2019-02-15T14:58:55.882Z,101683.64
2019-02-15T15:01:22.738Z,101680.77
2019-02-15T15:03:49.738Z,101677.55
2019-02-15T15:06:16.554Z,101671.93
2019-02-15T15:08:43.409Z,101678.13
2019-02-15T15:12:53.698Z,101679.50
2019-02-15T15:15:20.597Z,101677.52
2019-02-15T15:17:47.448Z,101672.66
2019-02-15T15:20:14.297Z,101669.96
2019-02-15T15:22:41.211Z,101671.28
2019-02-15T15:25:08.673Z,101670.45
2019-02-15T15:27:35.491Z,101667.05
2019-02-15T15:30:02.395Z,101670.72
2019-02-15T15:32:29.222Z,101673.70
2019-02-15T15:34:56.158Z,101661.52
2019-02-15T15:37:23.012Z,101663.17
2019-02-15T15:39:49.888Z,101666.49
2019-02-15T15:42:16.774Z,101660.92
2019-02-15T15:44:43.638Z,101660.20
2019-02-15T15:47:10.468Z,101660.21
2019-02-15T15:49:37.311Z,101664.30
2019-02-15T15:52:04.137Z,101666.30
2019-02-15T15:54:30.991Z,101654.93
2019-02-15T15:56:57.823Z,101659.99
2019-02-15T15:59:24.627Z,101651.94
2019-02-15T16:01:51.522Z,101646.58
2019-02-15T16:04:18.367Z,101654.59
2019-02-15T16:06:45.798Z,101654.11
2019-02-15T16:09:12.642Z,101655.59
2019-02-15T16:11:39.471Z,101640.75
2019-02-15T16:14:06.314Z,101644.53
2019-02-15T16:16:33.142Z,101645.42
2019-02-15T16:19:00.020Z,101652.09
2019-02-15T16:21:26.830Z,101650.34
2019-02-15T16:23:53.661Z,101644.33
2019-02-15T16:26:20.558Z,101644.91
2019-02-15T16:28:47.390Z,101646.95
2019-02-15T16:31:14.231Z,101654.66
2019-02-15T16:33:41.051Z,101653.69
2019-02-15T16:36:07.906Z,101653.80
2019-02-15T16:38:34.726Z,101643.08
2019-02-15T16:41:01.578Z,101642.35
2019-02-15T16:43:28.402Z,101641.27
2019-02-15T16:45:55.234Z,101644.89
2019-02-15T16:48:22.128Z,101656.13
2019-02-15T16:50:48.966Z,101644.27
2019-02-15T16:53:15.798Z,101647.53
2019-02-15T16:55:42.671Z,101645.54
2019-02-15T16:58:09.498Z,101643.47
2019-02-15T17:00:36.356Z,101643.20
2019-02-15T17:03:03.185Z,101643.91
2019-02-15T17:05:30.046Z,101639.12
2019-02-15T17:07:56.894Z,101636.44
2019-02-15T17:10:23.759Z,101641.73
2019-02-15T17:12:50.654Z,101638.40
2019-02-15T17:15:17.505Z,101644.24
2019-02-15T17:17:44.363Z,101646.92
2019-02-15T17:20:11.213Z,101659.67
2019-02-15T17:22:39.616Z,101650.09
2019-02-15T17:25:07.370Z,101647.20
2019-02-15T17:27:34.210Z,101652.04
2019-02-15T17:30:01.134Z,101649.52
2019-02-15T17:32:27.942Z,101646.49
2019-02-15T17:34:54.803Z,101645.46
2019-02-15T17:37:21.726Z,101644.51
2019-02-15T17:39:48.559Z,101637.94
2019-02-15T17:42:15.462Z,101640.33
2019-02-15T17:44:42.362Z,101635.81
2019-02-15T17:47:09.218Z,101639.61
2019-02-15T17:49:36.054Z,101645.73
2019-02-15T17:52:02.903Z,101637.86
2019-02-15T17:54:29.734Z,101631.39
2019-02-15T17:56:56.606Z,101635.19
2019-02-15T17:59:23.472Z,101637.12
2019-02-15T18:01:50.319Z,101643.45
2019-02-15T18:04:17.159Z,101626.20
2019-02-15T18:06:44.071Z,101625.64
2019-02-15T18:09:10.894Z,101618.55
2019-02-15T18:11:37.766Z,101620.88
2019-02-15T18:14:04.609Z,101618.43
2019-02-15T18:16:31.465Z,101620.92
2019-02-15T18:18:58.303Z,101618.70
2019-02-15T18:21:25.150Z,101616.78
2019-02-15T18:23:52.010Z,101625.20
2019-02-15T18:26:18.854Z,101624.28
2019-02-15T18:28:45.686Z,101631.97
2019-02-15T18:31:12.545Z,101632.61
2019-02-15T18:33:39.362Z,101632.21
2019-02-15T18:36:06.218Z,101623.77
2019-02-15T18:38:33.041Z,101626.27
2019-02-15T18:40:59.897Z,101631.79
2019-02-15T18:43:26.723Z,101628.62
2019-02-15T18:45:53.582Z,101629.28
2019-02-15T18:48:20.426Z,101631.70
2019-02-15T18:50:47.335Z,101629.91
2019-02-15T18:53:14.183Z,101630.50
2019-02-15T18:55:41.067Z,101628.00
2019-02-15T18:58:07.950Z,101635.91
2019-02-15T19:00:34.797Z,101633.27
2019-02-15T19:03:01.658Z,101629.63
2019-02-15T19:05:28.604Z,101636.59
2019-02-15T19:07:55.466Z,101632.51
2019-02-15T19:10:22.340Z,101633.17
2019-02-15T19:12:49.246Z,101622.62
2019-02-15T19:15:16.086Z,101623.73
2019-02-15T19:17:42.954Z,101613.87
2019-02-15T19:20:10.401Z,101610.92
2019-02-15T19:22:37.270Z,101613.98
2019-02-15T19:25:04.912Z,101611.56
2019-02-15T19:27:31.774Z,101609.81
2019-02-15T19:29:58.621Z,101603.39
2019-02-15T19:32:25.490Z,101603.42
2019-02-15T19:34:52.346Z,101601.41
2019-02-15T19:37:19.228Z,101599.23
2019-02-15T19:39:46.080Z,101602.01
2019-02-15T19:42:16.301Z,101591.17
2019-02-15T19:44:43.158Z,101593.84
2019-02-15T19:47:10.051Z,101580.34
2019-02-15T19:49:39.102Z,101586.37
2019-02-15T19:52:03.931Z,101588.27
2019-02-15T19:54:30.807Z,101582.83
2019-02-15T19:56:57.865Z,101589.65
2019-02-15T19:59:24.774Z,101582.91
2019-02-15T20:01:51.754Z,101587.91
2019-02-15T20:04:18.606Z,101588.48
2019-02-15T20:06:45.570Z,101596.43
2019-02-15T20:09:12.581Z,101599.20
2019-02-15T20:11:39.450Z,101592.75
2019-02-15T20:14:06.331Z,101585.53
2019-02-15T20:16:33.469Z,101585.43
2019-02-15T20:19:00.468Z,101584.25
2019-02-15T20:21:27.329Z,101589.23
2019-02-15T20:23:54.243Z,101586.07
2019-02-15T20:26:21.126Z,101582.16
2019-02-15T20:28:48.063Z,101586.81
2019-02-15T20:31:14.969Z,101582.72
2019-02-15T20:33:41.943Z,101584.69
2019-02-15T20:36:08.803Z,101583.67
2019-02-15T20:38:35.718Z,101585.61
2019-02-15T20:41:02.674Z,101591.67
2019-02-15T20:43:29.637Z,101587.55
2019-02-15T20:45:56.847Z,101595.63
2019-02-15T20:48:23.791Z,101591.60
2019-02-15T20:50:50.522Z,101599.70
2019-02-15T20:53:17.411Z,101594.16
2019-02-15T20:55:44.258Z,101598.06
2019-02-15T20:58:11.147Z,101596.77
2019-02-15T21:00:38.072Z,101596.86
2019-02-15T21:03:04.979Z,101590.86
2019-02-15T21:05:31.803Z,101591.58
2019-02-15T21:07:58.678Z,101592.52
2019-02-15T21:10:25.531Z,101595.39
2019-02-15T21:12:52.406Z,101595.44
2019-02-15T21:15:19.247Z,101592.72
2019-02-15T21:17:46.201Z,101595.02
2019-02-15T21:20:12.990Z,101593.55
2019-02-15T21:22:39.858Z,101592.27
2019-02-15T21:25:08.182Z,101601.52
2019-02-15T21:27:35.049Z,101598.03
2019-02-15T21:30:01.962Z,101596.05
2019-02-15T21:32:28.798Z,101590.44
2019-02-15T21:34:55.634Z,101591.64
2019-02-15T21:37:22.489Z,101587.55
2019-02-15T21:39:49.339Z,101593.98
2019-02-15T21:42:16.524Z,101592.61
2019-02-15T21:44:43.354Z,101587.40
2019-02-15T21:47:10.222Z,101595.91
2019-02-15T21:49:38.497Z,101591.98
2019-02-15T21:52:04.024Z,101596.52
2019-02-15T21:54:30.867Z,101596.30
2019-02-15T21:56:57.714Z,101593.33
2019-02-15T21:59:24.589Z,101591.14
2019-02-15T22:01:51.425Z,101593.33
2019-02-15T22:04:18.286Z,101591.77
2019-02-15T22:06:45.129Z,101598.41
2019-02-15T22:09:12.006Z,101591.37
2019-02-15T22:11:39.863Z,101590.52
2019-02-15T22:14:06.709Z,101584.58
2019-02-15T22:16:33.538Z,101583.08
2019-02-15T22:19:00.586Z,101587.34
2019-02-15T22:21:27.435Z,101583.91
2019-02-15T22:23:54.294Z,101577.41
2019-02-15T22:26:21.130Z,101576.88
2019-02-15T22:28:48.083Z,101576.13
2019-02-15T22:31:14.842Z,101579.55
2019-02-15T22:33:41.695Z,101584.47
2019-02-15T22:36:08.597Z,101570.89
2019-02-15T22:38:35.442Z,101579.79
2019-02-15T22:41:10.514Z,101583.95
2019-02-15T22:43:37.370Z,101586.37
2019-02-15T22:46:04.199Z,101582.87
2019-02-15T22:48:31.042Z,101573.36
2019-02-15T22:50:58.099Z,101569.98
2019-02-15T22:53:24.954Z,101574.45
2019-02-15T22:55:51.795Z,101574.58
2019-02-15T22:58:18.635Z,101576.09
2019-02-15T23:00:50.489Z,101576.45
2019-02-15T23:03:20.210Z,101575.55
2019-02-15T23:05:47.050Z,101574.26
2019-02-15T23:08:13.914Z,101587.33
2019-02-15T23:10:40.833Z,101592.52
2019-02-15T23:13:07.658Z,101590.80
2019-02-15T23:15:34.494Z,101586.94
2019-02-15T23:18:01.358Z,101582.56
2019-02-15T23:20:28.206Z,101583.57
2019-02-15T23:22:55.066Z,101581.15
2019-02-15T23:25:21.910Z,101580.77
2019-02-15T23:27:48.763Z,101583.34
2019-02-15T23:30:15.599Z,101585.53
2019-02-15T23:32:42.458Z,101581.67
2019-02-15T23:35:09.309Z,101579.28
2019-02-15T23:37:36.142Z,101587.03
2019-02-15T23:40:03.349Z,101584.69
2019-02-15T23:45:10.422Z,101582.77
2019-02-15T23:47:37.255Z,101570.84
2019-02-15T23:50:04.181Z,101575.03
2019-02-15T23:52:31.026Z,101577.66
2019-02-15T23:54:57.891Z,101576.41
2019-02-15T23:57:24.724Z,101572.68
2019-02-15T23:59:51.585Z,101573.53
